createdAt,value
2019-04-16T00:02:43.461Z,15.60
2019-04-16T00:05:27.861Z,15.60
2019-04-16T00:08:02.229Z,15.70
2019-04-16T00:10:36.247Z,15.70
2019-04-16T00:13:12.965Z,15.80
2019-04-16T00:15:45.573Z,15.60
2019-04-16T00:18:18.740Z,15.10
2019-04-16T00:20:59.331Z,15.10
2019-04-16T00:23:39.373Z,14.80
2019-04-16T00:26:12.470Z,14.30
2019-04-16T00:28:45.201Z,14.00
2019-04-16T00:31:17.711Z,13.60
2019-04-16T00:33:50.455Z,13.50
2019-04-16T00:36:23.159Z,13.10
2019-04-16T00:38:55.514Z,13.10
2019-04-16T00:41:27.989Z,12.80
2019-04-16T00:44:00.788Z,13.00
2019-04-16T00:46:33.365Z,12.80
2019-04-16T00:49:05.923Z,12.90
2019-04-16T00:51:38.645Z,12.80
2019-04-16T00:54:11.357Z,12.80
2019-04-16T00:56:46.602Z,12.90
2019-04-16T00:59:17.870Z,12.90
2019-04-16T01:01:50.357Z,13.00
2019-04-16T01:04:22.701Z,13.00
2019-04-16T01:06:55.501Z,12.50
2019-04-16T01:09:28.108Z,12.10
2019-04-16T01:12:00.506Z,12.30
2019-04-16T01:14:32.929Z,12.40
2019-04-16T01:17:05.748Z,12.20
2019-04-16T01:19:38.339Z,12.20
2019-04-16T01:22:15.745Z,12.10
2019-04-16T01:24:46.112Z,12.30
2019-04-16T01:27:18.837Z,12.30
2019-04-16T01:29:50.977Z,12.30
2019-04-16T01:32:25.127Z,12.30
2019-04-16T01:35:18.626Z,12.30
2019-04-16T01:38:06.665Z,12.20
2019-04-16T01:40:40.461Z,12.30
2019-04-16T01:43:12.855Z,12.00
2019-04-16T01:45:45.174Z,11.70
2019-04-16T01:48:17.650Z,12.10
2019-04-16T01:50:50.094Z,12.10
2019-04-16T01:53:22.570Z,12.10
2019-04-16T01:55:56.950Z,12.20
2019-04-16T01:58:33.527Z,12.30
2019-04-16T02:01:03.095Z,12.40
2019-04-16T02:03:36.035Z,12.00
2019-04-16T02:06:08.854Z,11.90
2019-04-16T02:08:41.840Z,12.00
2019-04-16T02:11:14.187Z,11.80
2019-04-16T02:13:46.986Z,11.90
2019-04-16T02:16:22.319Z,11.90
2019-04-16T02:18:54.314Z,12.10
2019-04-16T02:21:26.762Z,12.10
2019-04-16T02:23:59.300Z,12.00
2019-04-16T02:26:31.645Z,12.00
2019-04-16T02:29:04.265Z,11.80
2019-04-16T02:31:36.617Z,11.70
2019-04-16T02:34:09.098Z,11.90
2019-04-16T02:36:41.464Z,11.90
2019-04-16T02:39:14.405Z,11.90
2019-04-16T02:41:46.865Z,11.80
2019-04-16T02:44:19.298Z,11.70
2019-04-16T02:46:51.781Z,11.30
2019-04-16T02:49:25.235Z,11.60
2019-04-16T02:52:16.609Z,11.60
2019-04-16T02:54:50.910Z,11.50
2019-04-16T02:57:27.970Z,11.60
2019-04-16T03:00:04.497Z,11.50
2019-04-16T03:02:47.646Z,11.40
2019-04-16T03:05:21.551Z,11.40
2019-04-16T03:07:53.990Z,11.50
2019-04-16T03:10:26.925Z,11.40
2019-04-16T03:12:59.906Z,11.50
2019-04-16T03:15:50.028Z,11.40
2019-04-16T03:18:23.885Z,11.50
2019-04-16T03:20:56.848Z,11.50
2019-04-16T03:23:29.774Z,11.50
2019-04-16T03:26:02.944Z,11.30
2019-04-16T03:28:35.448Z,11.40
2019-04-16T03:31:09.649Z,11.40
2019-04-16T03:33:48.330Z,11.40
2019-04-16T03:36:15.935Z,11.50
2019-04-16T03:38:48.527Z,11.50
2019-04-16T03:41:21.189Z,11.60
2019-04-16T03:43:53.978Z,11.60
2019-04-16T03:46:26.801Z,11.70
2019-04-16T03:48:59.467Z,11.60
2019-04-16T03:51:32.644Z,11.60
2019-04-16T03:54:06.057Z,11.70
2019-04-16T03:56:38.555Z,11.70
2019-04-16T03:59:12.041Z,11.70
2019-04-16T04:01:46.052Z,11.60
2019-04-16T04:04:19.243Z,11.70
2019-04-16T04:06:51.897Z,11.70
2019-04-16T04:09:24.367Z,11.50
2019-04-16T04:11:57.023Z,11.70
2019-04-16T04:14:29.498Z,11.60
2019-04-16T04:17:05.454Z,11.60
2019-04-16T04:19:36.252Z,11.70
2019-04-16T04:22:09.229Z,11.80
2019-04-16T04:24:41.915Z,11.80
2019-04-16T04:27:18.657Z,11.80
2019-04-16T04:29:48.607Z,11.90
2019-04-16T04:32:20.994Z,11.90
2019-04-16T04:34:53.323Z,11.90
2019-04-16T04:37:31.006Z,11.80
2019-04-16T04:39:59.665Z,11.90
2019-04-16T04:42:32.253Z,12.00
2019-04-16T04:45:08.426Z,12.00
2019-04-16T04:47:39.376Z,12.10
2019-04-16T04:50:13.418Z,12.00
2019-04-16T04:52:46.809Z,12.00
2019-04-16T04:55:20.531Z,12.00
2019-04-16T04:57:53.067Z,11.90
2019-04-16T05:00:25.511Z,11.90
2019-04-16T05:02:57.900Z,11.80
2019-04-16T05:05:31.870Z,11.80
2019-04-16T05:08:05.485Z,11.80
2019-04-16T05:10:42.750Z,12.00
2019-04-16T05:13:12.095Z,12.00
2019-04-16T05:15:44.443Z,12.00
2019-04-16T05:18:17.123Z,12.00
2019-04-16T05:20:49.538Z,12.00
2019-04-16T05:23:25.127Z,11.90
2019-04-16T05:25:56.165Z,12.00
2019-04-16T05:28:28.816Z,12.00
2019-04-16T05:31:01.257Z,12.10
2019-04-16T05:33:34.487Z,12.10
2019-04-16T05:36:07.522Z,12.20
2019-04-16T05:38:40.216Z,12.20
2019-04-16T05:41:17.016Z,12.30
2019-04-16T05:43:46.922Z,12.30
2019-04-16T05:46:19.722Z,12.30
2019-04-16T05:48:53.988Z,12.40
2019-04-16T05:51:28.256Z,12.40
2019-04-16T05:54:01.250Z,12.40
2019-04-16T05:56:37.982Z,12.40
2019-04-16T05:59:10.390Z,12.40
2019-04-16T06:01:57.510Z,12.50
2019-04-16T06:04:30.528Z,12.40
2019-04-16T06:07:07.446Z,12.30
2019-04-16T06:09:37.329Z,12.30
2019-04-16T06:12:09.682Z,12.40
2019-04-16T06:14:59.342Z,12.50
2019-04-16T06:17:49.198Z,12.40
2019-04-16T06:20:26.195Z,12.30
2019-04-16T06:23:05.714Z,12.30
2019-04-16T06:25:41.419Z,12.30
2019-04-16T06:28:17.589Z,12.30
2019-04-16T06:31:05.046Z,12.20
2019-04-16T06:33:50.755Z,12.10
2019-04-16T06:36:24.486Z,12.00
2019-04-16T06:39:00.966Z,12.20
2019-04-16T06:41:52.632Z,12.00
2019-04-16T06:44:29.807Z,12.10
2019-04-16T06:47:04.511Z,12.20
2019-04-16T06:49:39.567Z,12.20
2019-04-16T06:52:19.351Z,12.20
2019-04-16T06:55:08.074Z,12.20
2019-04-16T06:57:42.901Z,12.20
2019-04-16T07:00:17.505Z,12.20
2019-04-16T07:03:02.167Z,12.20
2019-04-16T07:05:33.231Z,12.20
2019-04-16T07:08:36.933Z,12.20
2019-04-16T07:11:03.728Z,12.10
2019-04-16T07:13:36.127Z,12.10
2019-04-16T07:16:08.466Z,12.10
2019-04-16T07:18:41.073Z,12.10
2019-04-16T07:21:14.571Z,12.10
2019-04-16T07:23:47.557Z,12.10
2019-04-16T07:26:19.945Z,12.10
2019-04-16T07:29:05.708Z,12.00
2019-04-16T07:31:42.579Z,12.00
2019-04-16T07:34:22.143Z,12.00
2019-04-16T07:37:11.746Z,11.90
2019-04-16T07:40:01.407Z,11.90
2019-04-16T07:42:35.712Z,11.80
2019-04-16T07:45:19.198Z,11.90
2019-04-16T07:47:52.947Z,11.90
2019-04-16T07:50:42.626Z,11.90
2019-04-16T07:53:32.685Z,11.90
2019-04-16T07:56:06.565Z,11.90
2019-04-16T07:58:38.899Z,11.90
2019-04-16T08:01:13.562Z,12.00
2019-04-16T08:03:45.011Z,12.00
2019-04-16T08:06:17.926Z,12.00
2019-04-16T08:08:50.481Z,12.00
2019-04-16T08:11:23.176Z,12.00
2019-04-16T08:13:55.838Z,12.00
2019-04-16T08:16:28.167Z,12.00
2019-04-16T08:19:00.503Z,12.00
2019-04-16T08:21:33.631Z,12.00
2019-04-16T08:24:10.206Z,12.10
2019-04-16T08:26:45.076Z,12.10
2019-04-16T08:29:16.493Z,12.00
2019-04-16T08:31:50.429Z,12.00
2019-04-16T08:34:23.101Z,12.00
2019-04-16T08:36:55.813Z,12.00
2019-04-16T08:39:28.471Z,12.10
2019-04-16T08:42:01.279Z,12.10
2019-04-16T08:44:35.773Z,12.10
2019-04-16T08:47:11.547Z,12.10
2019-04-16T08:49:41.610Z,12.10
2019-04-16T08:52:14.151Z,12.00
2019-04-16T08:54:50.046Z,12.10
2019-04-16T08:57:20.426Z,12.10
2019-04-16T08:59:52.858Z,12.00
2019-04-16T09:02:27.020Z,12.10
2019-04-16T09:04:59.517Z,12.10
2019-04-16T09:07:41.130Z,12.20
2019-04-16T09:10:20.302Z,12.10
2019-04-16T09:13:02.424Z,12.10
2019-04-16T09:15:27.341Z,11.90
2019-04-16T09:18:17.505Z,11.70
2019-04-16T09:20:50.136Z,11.60
2019-04-16T09:23:22.751Z,11.50
2019-04-16T09:26:13.486Z,11.40
2019-04-16T09:28:45.058Z,11.30
2019-04-16T09:31:30.716Z,11.30
2019-04-16T09:34:08.155Z,11.40
2019-04-16T09:36:41.920Z,11.30
2019-04-16T09:39:22.191Z,11.30
2019-04-16T09:41:54.814Z,11.30
2019-04-16T09:44:31.558Z,11.40
2019-04-16T09:47:01.398Z,11.30
2019-04-16T09:49:34.410Z,11.30
2019-04-16T09:52:07.954Z,11.30
2019-04-16T09:54:41.484Z,11.20
2019-04-16T09:57:14.365Z,11.20
2019-04-16T09:59:57.115Z,11.20
2019-04-16T10:02:30.825Z,11.30
2019-04-16T10:05:03.466Z,11.30
2019-04-16T10:07:40.013Z,11.30
2019-04-16T10:10:10.265Z,11.20
2019-04-16T10:12:43.065Z,11.30
2019-04-16T10:15:16.750Z,11.30
2019-04-16T10:17:49.274Z,11.30
2019-04-16T10:20:22.004Z,11.20
2019-04-16T10:22:54.493Z,11.10
2019-04-16T10:25:27.042Z,11.20
2019-04-16T10:28:01.976Z,11.30
2019-04-16T10:30:36.045Z,11.40
2019-04-16T10:33:08.883Z,11.40
2019-04-16T10:35:42.265Z,11.40
2019-04-16T10:38:27.966Z,11.40
2019-04-16T10:41:17.372Z,11.50
2019-04-16T10:43:51.060Z,11.50
2019-04-16T10:46:27.640Z,11.50
2019-04-16T10:49:13.182Z,11.50
2019-04-16T10:52:02.545Z,11.40
2019-04-16T10:54:39.028Z,11.50
2019-04-16T10:57:25.301Z,11.50
2019-04-16T11:00:05.248Z,11.50
2019-04-16T11:02:40.136Z,11.50
2019-04-16T11:05:23.148Z,11.50
2019-04-16T11:07:56.884Z,11.60
2019-04-16T11:10:29.489Z,11.50
2019-04-16T11:13:03.736Z,11.60
2019-04-16T11:15:36.689Z,11.60
2019-04-16T11:18:09.246Z,11.50
2019-04-16T11:20:42.004Z,11.50
2019-04-16T11:23:14.528Z,11.50
2019-04-16T11:25:46.936Z,11.50
2019-04-16T11:28:19.868Z,11.40
2019-04-16T11:30:57.048Z,11.40
2019-04-16T11:33:29.781Z,11.40
2019-04-16T11:36:16.367Z,11.40
2019-04-16T11:38:36.643Z,11.50
2019-04-16T11:41:09.041Z,11.40
2019-04-16T11:43:41.785Z,11.40
2019-04-16T11:46:14.425Z,11.40
2019-04-16T11:48:50.077Z,11.40
2019-04-16T11:51:21.272Z,11.30
2019-04-16T11:53:54.501Z,11.30
2019-04-16T11:56:27.142Z,11.30
2019-04-16T11:58:59.989Z,11.30
2019-04-16T12:01:48.925Z,11.20
2019-04-16T12:04:25.987Z,11.10
2019-04-16T12:07:14.884Z,11.00
2019-04-16T12:10:03.838Z,11.00
2019-04-16T12:12:40.424Z,11.10
2019-04-16T12:15:15.544Z,11.10
2019-04-16T12:17:49.706Z,11.10
2019-04-16T12:20:23.843Z,11.10
2019-04-16T12:22:57.599Z,11.00
2019-04-16T12:25:49.101Z,10.90
2019-04-16T12:28:32.226Z,10.80
2019-04-16T12:31:16.841Z,10.80
2019-04-16T12:33:58.454Z,10.70
2019-04-16T12:36:48.666Z,10.70
2019-04-16T12:39:35.924Z,10.80
2019-04-16T12:42:22.267Z,10.80
2019-04-16T12:44:56.239Z,10.80
2019-04-16T12:47:35.869Z,10.70
2019-04-16T12:50:17.255Z,10.60
2019-04-16T12:53:06.991Z,10.60
2019-04-16T12:55:40.900Z,10.50
2019-04-16T12:58:19.157Z,10.40
2019-04-16T13:00:52.698Z,10.30
2019-04-16T13:03:46.439Z,10.30
2019-04-16T13:06:20.027Z,10.20
2019-04-16T13:08:54.157Z,10.10
2019-04-16T13:11:28.242Z,10.10
2019-04-16T13:14:05.158Z,10.10
2019-04-16T13:16:55.695Z,10.00
2019-04-16T13:19:45.093Z,10.00
2019-04-16T13:22:24.698Z,10.10
2019-04-16T13:25:04.539Z,10.00
2019-04-16T13:27:44.388Z,10.00
2019-04-16T13:30:17.415Z,9.90
2019-04-16T13:32:49.748Z,9.90
2019-04-16T13:35:22.367Z,9.90
2019-04-16T13:37:54.785Z,9.90
2019-04-16T13:40:27.485Z,9.90
2019-04-16T13:43:01.624Z,9.90
2019-04-16T13:45:36.377Z,9.90
2019-04-16T13:48:16.930Z,9.90
2019-04-16T13:50:45.634Z,9.90
2019-04-16T13:53:28.666Z,10.00
2019-04-16T13:56:18.490Z,10.00
2019-04-16T13:58:51.832Z,10.00
2019-04-16T14:01:25.572Z,10.20
2019-04-16T14:03:57.972Z,10.50
2019-04-16T14:06:30.618Z,10.80
2019-04-16T14:09:03.375Z,10.70
2019-04-16T14:11:37.894Z,10.80
2019-04-16T14:14:10.569Z,10.90
2019-04-16T14:16:43.819Z,11.20
2019-04-16T14:19:17.725Z,11.20
2019-04-16T14:21:50.214Z,11.10
2019-04-16T14:24:22.916Z,11.00
2019-04-16T14:26:55.474Z,10.90
2019-04-16T14:29:28.157Z,10.80
2019-04-16T14:32:03.309Z,10.70
2019-04-16T14:34:41.392Z,10.60
2019-04-16T14:37:14.519Z,10.60
2019-04-16T14:40:03.523Z,10.70
2019-04-16T14:42:36.450Z,10.70
2019-04-16T14:45:25.895Z,10.70
2019-04-16T14:47:58.306Z,10.70
2019-04-16T14:50:33.059Z,10.80
2019-04-16T14:53:05.050Z,10.90
2019-04-16T14:55:59.709Z,10.90
2019-04-16T14:58:41.246Z,10.80
2019-04-16T15:01:32.752Z,10.70
2019-04-16T15:04:21.806Z,10.80
2019-04-16T15:07:13.717Z,10.70
2019-04-16T15:09:50.318Z,10.80
2019-04-16T15:12:27.985Z,10.90
2019-04-16T15:15:03.117Z,10.90
2019-04-16T15:17:44.118Z,10.90
2019-04-16T15:20:27.206Z,10.90
2019-04-16T15:23:00.928Z,11.00
2019-04-16T15:25:34.655Z,11.10
2019-04-16T15:28:14.122Z,11.10
2019-04-16T15:30:53.377Z,11.20
2019-04-16T15:33:30.311Z,11.40
2019-04-16T15:36:04.146Z,11.30
2019-04-16T15:38:54.627Z,11.30
2019-04-16T15:41:41.691Z,11.40
2019-04-16T15:44:15.928Z,11.50
2019-04-16T15:46:58.282Z,11.50
2019-04-16T15:49:40.842Z,11.60
2019-04-16T15:52:32.537Z,11.70
2019-04-16T15:55:06.748Z,11.70
2019-04-16T15:57:40.837Z,11.50
2019-04-16T16:00:29.965Z,11.70
2019-04-16T16:03:09.635Z,11.90
2019-04-16T16:05:59.427Z,12.10
2019-04-16T16:08:39.189Z,12.10
2019-04-16T16:11:22.430Z,12.20
2019-04-16T16:13:56.715Z,12.40
2019-04-16T16:16:41.042Z,12.20
2019-04-16T16:19:02.874Z,12.10
2019-04-16T16:21:35.311Z,12.20
2019-04-16T16:24:08.415Z,12.60
2019-04-16T16:26:41.439Z,12.50
2019-04-16T16:29:13.848Z,12.40
2019-04-16T16:31:46.236Z,12.60
2019-04-16T16:34:18.621Z,12.60
2019-04-16T16:36:51.325Z,12.80
2019-04-16T16:39:23.804Z,12.70
2019-04-16T16:41:56.691Z,12.60
2019-04-16T16:44:29.602Z,13.00
2019-04-16T16:47:09.451Z,13.10
2019-04-16T16:49:41.726Z,13.40
2019-04-16T16:52:18.216Z,13.40
2019-04-16T16:54:51.956Z,13.50
2019-04-16T16:57:37.776Z,13.80
2019-04-16T17:00:28.105Z,13.70
2019-04-16T17:03:09.748Z,13.70
2019-04-16T17:05:45.846Z,13.90
2019-04-16T17:08:18.269Z,14.00
2019-04-16T17:10:50.654Z,14.30
2019-04-16T17:13:23.584Z,14.40
2019-04-16T17:15:56.672Z,14.20
2019-04-16T17:18:29.102Z,14.40
2019-04-16T17:21:02.070Z,14.30
2019-04-16T17:23:34.425Z,14.50
2019-04-16T17:26:06.921Z,14.70
2019-04-16T17:28:43.095Z,14.90
2019-04-16T17:31:14.219Z,15.20
2019-04-16T17:33:46.775Z,15.70
2019-04-16T17:36:19.176Z,15.60
2019-04-16T17:38:51.650Z,15.40
2019-04-16T17:41:25.638Z,15.10
2019-04-16T17:44:02.677Z,15.00
2019-04-16T17:46:38.343Z,14.50
2019-04-16T17:49:17.867Z,14.90
2019-04-16T17:52:03.674Z,14.90
2019-04-16T17:54:40.193Z,15.00
2019-04-16T17:57:28.976Z,15.70
2019-04-16T18:00:04.742Z,16.20
2019-04-16T18:02:43.385Z,16.00
2019-04-16T18:05:35.094Z,16.50
2019-04-16T18:08:26.930Z,16.70
2019-04-16T18:11:00.667Z,16.80
2019-04-16T18:13:40.480Z,16.20
2019-04-16T18:16:26.602Z,16.20
2019-04-16T18:19:06.441Z,16.20
2019-04-16T18:21:46.843Z,16.60
2019-04-16T18:24:35.730Z,16.60
2019-04-16T18:27:09.889Z,16.70
2019-04-16T18:29:46.502Z,16.70
2019-04-16T18:32:23.166Z,16.90
2019-04-16T18:35:16.095Z,16.00
2019-04-16T18:38:00.670Z,16.40
2019-04-16T18:40:46.870Z,16.50
2019-04-16T18:43:39.011Z,16.60
2019-04-16T18:46:21.758Z,16.70
2019-04-16T18:48:55.812Z,16.70
2019-04-16T18:51:32.785Z,17.20
2019-04-16T18:54:02.312Z,16.80
2019-04-16T18:56:34.757Z,17.00
2019-04-16T18:59:07.429Z,17.70
2019-04-16T19:01:41.271Z,17.30
2019-04-16T19:04:13.761Z,18.20
2019-04-16T19:06:46.094Z,18.40
2019-04-16T19:09:20.846Z,17.60
2019-04-16T19:11:52.649Z,17.60
2019-04-16T19:14:25.404Z,19.20
2019-04-16T19:16:57.739Z,21.40
2019-04-16T19:19:30.402Z,20.40
2019-04-16T19:22:03.434Z,19.20
2019-04-16T19:24:36.184Z,20.20
2019-04-16T19:27:08.625Z,19.10
2019-04-16T19:29:42.842Z,18.50
2019-04-16T19:32:15.285Z,20.20
2019-04-16T19:34:48.124Z,19.40
2019-04-16T19:37:20.508Z,19.40
2019-04-16T19:39:52.882Z,19.00
2019-04-16T19:42:25.736Z,18.50
2019-04-16T19:44:59.038Z,19.40
2019-04-16T19:47:35.105Z,19.20
2019-04-16T19:50:06.482Z,21.00
2019-04-16T19:52:38.831Z,23.50
2019-04-16T19:55:12.639Z,21.10
2019-04-16T19:57:45.193Z,22.70
2019-04-16T20:00:22.010Z,21.10
2019-04-16T20:02:51.735Z,20.00
2019-04-16T20:05:26.898Z,20.50
2019-04-16T20:07:58.762Z,19.30
2019-04-16T20:10:31.517Z,22.30
2019-04-16T20:13:03.945Z,24.40
2019-04-16T20:15:36.350Z,22.10
2019-04-16T20:18:08.691Z,22.00
2019-04-16T20:20:41.266Z,26.30
2019-04-16T20:23:14.239Z,27.50
2019-04-16T20:25:46.677Z,29.30
2019-04-16T20:28:19.017Z,27.70
2019-04-16T20:30:57.324Z,24.70
2019-04-16T20:33:25.455Z,22.40
2019-04-16T20:35:57.937Z,21.20
2019-04-16T20:38:30.379Z,22.30
2019-04-16T20:41:02.757Z,24.00
2019-04-16T20:43:35.182Z,26.50
2019-04-16T20:46:07.630Z,28.90
2019-04-16T20:48:41.906Z,30.90
2019-04-16T20:51:15.393Z,31.40
2019-04-16T20:53:47.849Z,25.20
2019-04-16T20:56:21.573Z,26.80
2019-04-16T20:58:54.598Z,25.20
2019-04-16T21:01:35.358Z,28.60
2019-04-16T21:04:05.717Z,26.70
2019-04-16T21:06:34.523Z,25.90
2019-04-16T21:09:08.561Z,31.40
2019-04-16T21:11:42.277Z,33.30
2019-04-16T21:14:14.725Z,30.80
2019-04-16T21:16:47.318Z,32.10
2019-04-16T21:19:23.099Z,33.60
2019-04-16T21:21:56.409Z,35.60
2019-04-16T21:24:27.973Z,33.20
2019-04-16T21:27:00.326Z,30.90
2019-04-16T21:29:34.811Z,33.80
2019-04-16T21:32:24.087Z,32.40
2019-04-16T21:35:00.577Z,35.10
2019-04-16T21:37:34.145Z,32.70
2019-04-16T21:40:08.295Z,31.80
2019-04-16T21:42:40.674Z,32.90
2019-04-16T21:45:13.645Z,33.70
2019-04-16T21:47:47.217Z,33.90
2019-04-16T21:50:19.655Z,34.30
2019-04-16T21:52:55.025Z,33.60
2019-04-16T21:55:26.181Z,35.40
2019-04-16T21:57:58.552Z,34.00
2019-04-16T22:00:41.256Z,35.00
2019-04-16T22:03:18.848Z,34.30
2019-04-16T22:05:51.315Z,32.30
2019-04-16T22:08:26.770Z,31.90
2019-04-16T22:10:57.734Z,32.50
2019-04-16T22:13:30.643Z,33.80
2019-04-16T22:16:03.214Z,31.90
2019-04-16T22:18:37.686Z,29.30
2019-04-16T22:21:10.956Z,30.80
2019-04-16T22:23:43.354Z,32.30
2019-04-16T22:26:16.409Z,33.00
2019-04-16T22:28:48.804Z,33.70
2019-04-16T22:31:23.805Z,34.40
2019-04-16T22:33:55.262Z,32.90
2019-04-16T22:36:27.694Z,32.40
2019-04-16T22:39:01.575Z,31.60
2019-04-16T22:41:36.757Z,31.10
2019-04-16T22:44:19.782Z,30.60
2019-04-16T22:46:53.709Z,32.30
2019-04-16T22:49:27.206Z,32.50
2019-04-16T22:51:59.566Z,32.00
2019-04-16T22:54:32.575Z,33.20
2019-04-16T22:57:06.732Z,32.60
2019-04-16T22:59:40.112Z,33.80
2019-04-16T23:02:23.105Z,31.40
2019-04-16T23:04:58.526Z,33.00
2019-04-16T23:07:29.456Z,31.80
2019-04-16T23:10:02.102Z,31.20
2019-04-16T23:12:35.674Z,29.30
2019-04-16T23:15:09.548Z,27.70
2019-04-16T23:17:42.812Z,30.40
2019-04-16T23:20:28.727Z,30.00
2019-04-16T23:22:49.795Z,31.60
2019-04-16T23:25:26.949Z,29.10
2019-04-16T23:27:56.697Z,30.10
2019-04-16T23:30:29.173Z,30.00
2019-04-16T23:33:01.940Z,31.00
2019-04-16T23:35:34.365Z,28.90
2019-04-16T23:38:06.811Z,28.40
2019-04-16T23:40:40.838Z,28.80
2019-04-16T23:43:31.053Z,27.20
2019-04-16T23:46:10.996Z,26.10
2019-04-16T23:48:54.006Z,27.10
2019-04-16T23:51:43.909Z,27.30
2019-04-16T23:54:20.735Z,26.00
2019-04-16T23:56:57.523Z,25.70
2019-04-16T23:59:32.659Z,25.90
